Time;durP1;ratioP1;P1;durP2;ratioP2;P2;SDS_P1;SDS_P2;PMS_P1;PMS_P2;Temp;Humidity;BMP_temperature;BMP_pressure;BME280_temperature;BME280_humidity;BME280_pressure;Samples;Min_cycle;Max_cycle;Signal;HPM_P1;HPM_P2
2022/08/19 00:01:57;;;;;;;14.77;10.27;;;24.10;76.40;;;24.35;48.88;98190.31;5033442;27;118677;-72
2022/08/19 00:04:30;;;;;;;13.87;10.20;;;24.00;75.80;;;24.35;48.95;98197.97;5035782;27;119601;-72
2022/08/19 00:07:05;;;;;;;12.77;10.40;;;24.00;75.90;;;24.33;48.97;98186.28;5026651;27;123207;-72
2022/08/19 00:09:32;;;;;;;13.73;10.97;;;24.00;76.00;;;24.34;49.12;98179.41;5025391;27;123850;-72
2022/08/19 00:11:59;;;;;;;11.97;9.40;;;24.00;76.10;;;24.33;49.28;98187.09;5026520;27;120635;-72
2022/08/19 00:14:31;;;;;;;15.67;10.97;;;24.00;76.20;;;24.34;49.08;98185.06;5033147;27;119787;-72
2022/08/19 00:16:57;;;;;;;14.90;10.20;;;24.00;76.40;;;24.34;49.08;98199.19;5032618;27;124134;-72
2022/08/19 00:19:24;;;;;;;15.37;10.70;;;24.00;76.50;;;24.34;49.20;98199.19;5031573;27;123396;-72
2022/08/19 00:21:52;;;;;;;13.30;10.07;;;23.90;76.50;;;24.33;49.41;98194.75;5028297;27;119277;-72
2022/08/19 00:24:19;;;;;;;13.73;10.33;;;23.90;76.50;;;24.30;49.21;98193.59;5027848;27;119417;-72
2022/08/19 00:26:45;;;;;;;16.63;11.77;;;23.90;76.60;;;24.29;49.41;98192.00;5037472;27;124086;-72
2022/08/19 00:29:15;;;;;;;12.60;10.07;;;23.90;76.80;;;24.27;49.51;98190.81;5031721;27;121852;-73
2022/08/19 00:31:43;;;;;;;12.63;9.47;;;23.90;76.90;;;24.25;49.42;98197.66;5027950;27;118921;-72
2022/08/19 00:34:11;;;;;;;13.27;10.37;;;23.90;77.00;;;24.24;49.29;98184.78;5032050;27;118970;-72
2022/08/19 00:36:39;;;;;;;13.60;10.47;;;23.80;77.00;;;24.21;49.71;98179.97;5031953;27;124783;-73
2022/08/19 00:39:06;;;;;;;13.07;10.13;;;23.90;77.20;;;24.18;49.73;98169.50;5030403;27;123894;-70
2022/08/19 00:41:35;;;;;;;14.20;11.53;;;23.80;77.20;;;24.14;49.68;98167.94;5031837;27;119339;-73
2022/08/19 00:44:08;;;;;;;13.27;10.43;;;23.70;77.20;;;24.13;49.60;98158.69;5026849;27;119007;-72
2022/08/19 00:46:40;;;;;;;14.07;11.37;;;23.80;77.50;;;24.14;49.47;98156.66;5043582;27;124646;-72
2022/08/19 00:49:40;;;;;;;16.30;10.93;;;23.70;77.50;;;24.12;49.66;98165.53;5034467;27;123889;-72
2022/08/19 00:52:15;;;;;;;13.80;10.50;;;23.80;77.60;;;24.08;49.85;98170.41;5026717;27;119941;-72
2022/08/19 00:54:42;;;;;;;14.00;10.40;;;23.70;77.70;;;24.05;50.02;98176.91;5031098;27;118995;-73
2022/08/19 00:57:20;;;;;;;13.90;10.37;;;23.70;77.80;;;24.05;50.01;98179.72;5032627;27;124689;-73
2022/08/19 00:59:54;;;;;;;16.07;10.60;;;23.60;77.90;;;24.04;49.74;98178.09;5027411;27;124285;-72
2022/08/19 01:02:21;;;;;;;19.07;11.37;;;23.60;77.90;;;24.04;50.05;98180.94;5030167;27;120232;-72
2022/08/19 01:04:47;;;;;;;13.10;10.30;;;23.60;78.00;;;24.06;50.06;98189.78;5027506;27;120125;-71
2022/08/19 01:07:14;;;;;;;15.53;11.70;;;23.70;78.20;;;24.07;50.08;98191.38;5037222;27;123906;-71
2022/08/19 01:09:41;;;;;;;16.40;11.10;;;23.70;78.20;;;24.07;49.95;98184.94;5009343;27;123098;-71
2022/08/19 01:12:08;;;;;;;15.00;11.87;;;23.70;78.30;;;24.04;50.09;98186.56;5027641;27;119524;-73
2022/08/19 01:14:39;;;;;;;13.90;10.27;;;23.60;78.30;;;24.03;50.21;98179.34;5036826;27;119028;-72
2022/08/19 01:17:10;;;;;;;18.13;11.40;;;23.60;78.40;;;24.04;49.98;98178.09;5026167;27;124148;-72
2022/08/19 01:19:41;;;;;;;16.37;11.77;;;23.60;78.50;;;24.03;50.32;98168.84;5033171;27;123820;-73
2022/08/19 01:22:23;;;;;;;13.57;11.20;;;23.60;78.50;;;24.01;50.15;98176.13;5025951;27;119517;-73
2022/08/19 01:24:51;;;;;;;14.20;10.77;;;23.60;78.60;;;23.99;50.18;98168.09;5035333;27;118020;-72
2022/08/19 01:27:18;;;;;;;15.20;11.30;;;23.60;78.70;;;23.99;50.23;98179.38;5030963;27;124830;-73
2022/08/19 01:29:45;;;;;;;12.80;9.43;;;23.60;78.80;;;23.97;50.47;98169.72;5035300;27;123068;-73
2022/08/19 01:32:16;;;;;;;12.27;10.23;;;23.60;78.90;;;23.95;50.47;98172.16;5030181;27;119292;-72
2022/08/19 01:34:46;;;;;;;14.17;11.07;;;23.60;78.90;;;23.96;50.53;98168.13;5025840;27;118859;-72
2022/08/19 01:37:15;;;;;;;15.43;12.23;;;23.60;79.00;;;23.95;50.43;98166.53;5027161;27;124639;-72
2022/08/19 01:39:43;;;;;;;12.10;10.53;;;23.60;79.10;;;23.93;50.51;98164.09;5029003;27;123907;-71
2022/08/19 01:42:12;;;;;;;15.83;10.90;;;23.60;79.20;;;23.92;50.46;98167.34;5040577;27;119950;-72
2022/08/19 01:44:40;;;;;;;15.53;12.00;;;23.50;79.10;;;23.86;50.67;98164.19;5031266;27;119109;-72
2022/08/19 01:47:09;;;;;;;14.63;10.83;;;23.50;79.30;;;23.80;50.71;98161.03;5036287;27;124065;-72
2022/08/19 01:49:36;;;;;;;14.27;11.40;;;23.50;79.50;;;23.79;50.90;98165.03;5025558;27;124290;-72
2022/08/19 01:52:04;;;;;;;16.70;11.87;;;23.40;79.60;;;23.76;51.04;98165.88;5035965;27;119267;-72
2022/08/19 01:54:32;;;;;;;18.40;10.73;;;23.40;79.70;;;23.75;51.02;98158.66;5011157;27;118888;-72
2022/08/19 01:57:08;;;;;;;16.60;12.40;;;23.40;79.90;;;23.76;50.82;98162.25;5015785;27;123056;-72
2022/08/19 01:59:36;;;;;;;14.20;11.33;;;23.40;80.00;;;23.74;51.27;98168.31;5032098;27;124215;-72
2022/08/19 02:02:07;;;;;;;13.47;11.37;;;23.40;80.10;;;23.72;51.34;98173.59;5042367;27;119310;-72
2022/08/19 02:04:34;;;;;;;16.37;12.40;;;23.40;80.30;;;23.71;51.28;98176.78;5043912;27;118818;-72
2022/08/19 02:07:01;;;;;;;15.63;12.20;;;23.30;80.30;;;23.71;51.37;98171.13;5035735;27;123856;-72
2022/08/19 02:09:28;;;;;;;20.63;12.77;;;23.40;80.50;;;23.68;51.53;98169.94;5029819;27;124806;-73
2022/08/19 02:11:55;;;;;;;16.93;12.73;;;23.30;80.60;;;23.64;51.72;98169.16;5041042;27;119337;-72
2022/08/19 02:14:21;;;;;;;18.17;12.40;;;23.30;80.70;;;23.63;51.95;98176.03;5026137;27;119118;-72
2022/08/19 02:16:48;;;;;;;17.50;12.30;;;23.20;80.80;;;23.60;51.89;98165.59;5026758;27;125233;-72
2022/08/19 02:19:14;;;;;;;20.23;13.43;;;23.20;81.00;;;23.57;51.81;98163.59;5029396;27;124572;-72
2022/08/19 02:21:43;;;;;;;18.53;13.50;;;23.20;81.80;;;23.54;51.92;98164.44;5037186;27;119328;-72
2022/08/19 02:24:10;;;;;;;22.50;13.00;;;23.10;81.50;;;23.50;52.00;98164.44;5029288;27;119128;-72
2022/08/19 02:26:36;;;;;;;17.50;13.13;;;23.10;81.50;;;23.50;52.34;98164.44;5025067;27;124180;-72
2022/08/19 02:29:03;;;;;;;21.57;14.70;;;23.10;81.60;;;23.50;52.21;98169.28;5046284;27;123396;-72
2022/08/19 02:31:30;;;;;;;17.80;12.93;;;23.10;82.00;;;23.48;52.21;98171.72;5041607;27;119317;-72
2022/08/19 02:33:57;;;;;;;15.50;12.30;;;23.10;82.00;;;23.51;52.24;98173.72;5029638;27;119118;-72
2022/08/19 02:36:26;;;;;;;19.17;13.50;;;23.10;82.00;;;23.52;52.34;98175.31;5030618;27;124047;-72
2022/08/19 02:38:53;;;;;;;17.27;13.30;;;23.10;82.30;;;23.52;52.27;98170.47;5030416;27;124140;-72
2022/08/19 02:41:32;;;;;;;18.07;13.13;;;23.10;82.20;;;23.53;52.54;98174.09;5033110;27;120252;-72
2022/08/19 02:44:02;;;;;;;22.37;15.83;;;23.10;82.30;;;23.50;52.45;98174.94;5032702;27;120466;-72
2022/08/19 02:46:31;;;;;;;19.67;13.83;;;23.10;82.50;;;23.47;52.71;98173.75;5022535;27;123070;-73
2022/08/19 02:49:04;;;;;;;22.10;14.77;;;23.10;82.60;;;23.43;52.59;98170.16;5040547;27;122942;-71
2022/08/19 02:51:36;;;;;;;18.67;14.63;;;23.00;82.80;;;23.43;52.90;98169.34;5028662;27;119285;-72
2022/08/19 02:54:05;;;;;;;15.73;12.67;;;23.00;82.80;;;23.42;52.73;98174.19;5029193;27;119346;-72
2022/08/19 02:56:34;;;;;;;17.53;13.33;;;23.00;82.90;;;23.40;52.85;98168.19;5028526;27;123417;-72
2022/08/19 02:59:02;;;;;;;17.83;14.17;;;23.00;82.90;;;23.38;52.88;98156.50;5028387;27;124273;-71
2022/08/19 03:01:32;;;;;;;17.60;14.13;;;23.00;83.00;;;23.38;52.81;98156.50;5025581;27;119925;-72
2022/08/19 03:04:02;;;;;;;23.03;14.87;;;23.00;83.10;;;23.36;52.78;98151.25;5026783;27;119391;-72
2022/08/19 03:06:29;;;;;;;19.47;13.57;;;23.00;83.20;;;23.36;52.96;98148.44;5027951;27;123742;-72
2022/08/19 03:08:58;;;;;;;21.50;15.70;;;23.00;83.30;;;23.35;52.92;98160.94;5013913;27;124883;-72
2022/08/19 03:11:31;;;;;;;19.27;13.60;;;23.00;83.40;;;23.34;53.26;98167.00;5025213;27;119366;-72
2022/08/19 03:13:59;;;;;;;22.63;16.40;;;23.00;83.70;;;23.32;53.53;98175.88;5029471;27;119502;-72
2022/08/19 03:16:29;;;;;;;18.13;14.43;;;22.90;83.80;;;23.31;53.50;98182.72;5023791;27;123629;-72
2022/08/19 03:18:59;;;;;;;17.47;13.90;;;22.90;83.90;;;23.29;53.59;98182.34;5025459;27;124103;-72
2022/08/19 03:21:29;;;;;;;21.80;15.93;;;22.90;84.30;;;23.25;53.91;98175.91;5024182;27;118567;-72
2022/08/19 03:24:02;;;;;;;21.57;15.57;;;22.90;84.50;;;23.20;53.98;98184.81;5027528;27;118583;-72
2022/08/19 03:26:30;;;;;;;19.83;14.87;;;22.80;84.50;;;23.18;54.02;98183.59;5025252;27;124008;-72
2022/08/19 03:28:57;;;;;;;21.97;15.17;;;22.80;84.80;;;23.14;54.25;98178.00;5028404;27;122065;-72
2022/08/19 03:31:26;;;;;;;21.50;17.27;;;22.80;85.00;;;23.12;54.20;98175.59;5027510;27;120238;-72
2022/08/19 03:33:53;;;;;;;22.73;16.53;;;22.80;85.30;;;23.07;54.56;98181.66;5037146;27;120013;-72
2022/08/19 03:36:24;;;;;;;24.60;16.60;;;22.70;86.10;;;23.02;54.61;98181.28;5027852;27;124073;-72
2022/08/19 03:38:55;;;;;;;30.30;17.13;;;22.70;85.50;;;23.00;54.66;98186.53;5027705;27;124282;-72
2022/08/19 03:41:29;;;;;;;19.83;15.10;;;22.70;85.90;;;23.00;54.52;98187.34;5024798;27;119347;-72
2022/08/19 03:43:55;;;;;;;21.90;15.03;;;22.60;85.90;;;23.00;54.87;98183.72;5032767;27;119407;-71
2022/08/19 03:46:31;;;;;;;19.87;14.90;;;22.60;85.90;;;22.99;54.93;98184.94;5040061;27;124154;-71
2022/08/19 03:49:03;;;;;;;21.20;16.33;;;22.60;86.00;;;22.95;55.01;98184.94;5027212;27;123821;-71
2022/08/19 03:51:35;;;;;;;22.63;16.60;;;22.60;86.20;;;22.89;55.18;98181.75;5008725;27;119240;-72
2022/08/19 03:54:07;;;;;;;23.53;17.67;;;22.50;86.50;;;22.87;54.99;98177.72;5031022;27;118971;-72
2022/08/19 03:56:37;;;;;;;21.77;15.83;;;22.50;86.50;;;22.84;55.40;98184.97;5025254;27;123965;-72
2022/08/19 03:59:10;;;;;;;20.83;15.10;;;22.50;86.50;;;22.83;55.24;98189.00;5021870;27;123722;-72
2022/08/19 04:01:37;;;;;;;21.00;15.97;;;22.50;86.50;;;22.83;55.19;98189.00;5027577;27;119317;-72
2022/08/19 04:04:04;;;;;;;20.67;14.90;;;22.40;86.60;;;22.82;55.04;98189.41;5024928;27;118918;-72
2022/08/19 04:06:34;;;;;;;25.33;17.50;;;22.40;86.60;;;22.81;55.06;98196.25;5024803;27;124063;-72
2022/08/19 04:09:04;;;;;;;21.60;17.07;;;22.40;86.70;;;22.79;55.17;98191.03;5023375;27;123820;-72
2022/08/19 04:11:40;;;;;;;23.77;15.60;;;22.40;86.70;;;22.77;55.43;98201.91;5038430;27;118371;-72
2022/08/19 04:14:08;;;;;;;22.10;17.53;;;22.40;86.70;;;22.75;55.37;98187.44;5036475;27;119247;-72
2022/08/19 04:16:35;;;;;;;22.63;15.90;;;22.40;86.90;;;22.75;55.02;98187.44;5034027;27;124755;-71
2022/08/19 04:19:04;;;;;;;21.00;16.30;;;22.30;86.80;;;22.74;55.17;98193.47;5023555;27;123793;-71
2022/08/19 04:21:31;;;;;;;19.87;16.33;;;22.40;86.90;;;22.75;55.39;98189.44;5023931;27;120227;-71
2022/08/19 04:23:58;;;;;;;24.90;17.80;;;22.30;86.80;;;22.72;55.37;98188.25;5027252;27;120611;-72
2022/08/19 04:26:33;;;;;;;22.30;15.70;;;22.30;86.90;;;22.71;55.20;98181.81;5044882;27;124114;-71
2022/08/19 04:29:04;;;;;;;21.00;16.60;;;22.30;86.90;;;22.71;55.14;98192.28;5024846;27;123829;-72
2022/08/19 04:31:35;;;;;;;19.43;14.53;;;22.30;86.90;;;22.71;55.32;98190.25;5027393;27;118648;-72
2022/08/19 04:34:06;;;;;;;20.27;16.00;;;22.30;87.00;;;22.71;55.15;98186.66;5031389;27;119077;-72
2022/08/19 04:36:36;;;;;;;21.70;13.93;;;22.30;87.10;;;22.69;55.17;98175.00;5023922;27;124199;-70
2022/08/19 04:39:16;;;;;;;22.17;17.23;;;22.30;87.10;;;22.70;55.19;98179.41;5023644;27;124427;-72
2022/08/19 04:44:32;;;;;;;23.40;15.97;;;22.30;87.20;;;22.68;55.14;98184.66;5026710;27;119630;-71
2022/08/19 04:47:00;;;;;;;30.03;16.40;;;22.30;87.20;;;22.68;55.02;98191.09;5023187;27;124092;-71
2022/08/19 04:49:27;;;;;;;25.90;17.90;;;22.30;87.20;;;22.69;55.28;98197.50;5032600;27;124388;-71
2022/08/19 04:51:54;;;;;;;21.60;15.50;;;22.30;87.30;;;22.65;55.20;98189.09;5027896;27;119365;-71
2022/08/19 04:54:24;;;;;;;19.43;15.27;;;22.20;87.20;;;22.67;55.13;98199.94;5034402;27;119040;-71
2022/08/19 04:56:53;;;;;;;23.57;15.70;;;22.30;87.40;;;22.67;55.23;98197.91;5025869;27;124136;-71
2022/08/19 04:59:22;;;;;;;22.00;17.13;;;22.20;87.30;;;22.67;55.05;98200.72;5036453;27;124219;-71
2022/08/19 05:01:49;;;;;;;21.60;16.63;;;22.20;87.20;;;22.69;55.30;98198.31;5015372;27;118572;-72
2022/08/19 05:04:19;;;;;;;22.80;16.80;;;22.30;87.40;;;22.70;55.34;98202.75;5027958;27;118270;-72
2022/08/19 05:06:48;;;;;;;21.90;16.87;;;22.30;87.70;;;22.71;55.63;98204.34;5029694;27;124077;-72
2022/08/19 05:09:15;;;;;;;21.10;16.20;;;22.30;87.50;;;22.72;55.42;98199.50;5037805;27;122785;-72
2022/08/19 05:11:43;;;;;;;25.40;18.10;;;22.30;87.60;;;22.73;55.55;98201.13;5031627;27;120691;-72
2022/08/19 05:14:12;;;;;;;25.30;16.40;;;22.30;87.70;;;22.74;55.33;98208.38;5031614;27;119081;-73
2022/08/19 05:16:39;;;;;;;22.60;16.47;;;22.30;87.70;;;22.76;55.36;98216.41;5033191;27;123222;-72
2022/08/19 05:24:37;;;;;;;22.27;15.23;;;22.30;87.70;;;22.77;55.66;98243.34;5030145;27;119803;-72
2022/08/19 05:27:05;;;;;;;24.53;17.00;;;22.30;87.70;;;22.80;55.32;98257.41;5026059;27;124466;-72
2022/08/19 05:29:34;;;;;;;25.47;17.50;;;22.30;87.80;;;22.79;55.13;98266.28;5042995;27;123956;-72
2022/08/19 05:32:04;;;;;;;25.50;17.63;;;22.40;87.90;;;22.79;55.37;98269.91;5031347;27;120100;-71
2022/08/19 05:34:32;;;;;;;22.47;17.43;;;22.40;88.00;;;22.81;55.49;98283.56;5038095;27;118473;-72
2022/08/19 05:37:01;;;;;;;23.20;16.60;;;22.40;87.90;;;22.79;55.31;98286.81;5025225;27;123926;-71
2022/08/19 05:39:31;;;;;;;21.53;16.50;;;22.40;87.90;;;22.80;55.62;98293.25;5026986;27;124147;-72
2022/08/19 05:42:03;;;;;;;20.90;15.67;;;22.40;87.90;;;22.81;55.40;98292.84;5028490;27;119446;-72
2022/08/19 05:44:33;;;;;;;24.73;18.77;;;22.40;87.90;;;22.79;55.59;98289.63;5031260;27;119227;-71
2022/08/19 05:47:04;;;;;;;19.40;14.90;;;22.40;88.10;;;22.79;55.46;98284.00;5029183;27;124111;-71
2022/08/19 05:49:32;;;;;;;18.67;14.47;;;22.40;88.00;;;22.81;55.49;98287.22;5029464;27;122927;-72
2022/08/19 05:52:04;;;;;;;19.27;15.60;;;22.30;88.00;;;22.84;55.37;98286.41;5011653;27;118237;-72
2022/08/19 05:54:31;;;;;;;20.60;16.33;;;22.40;88.10;;;22.87;55.60;98285.56;5021839;27;117189;-72
2022/08/19 05:56:57;;;;;;;21.40;17.13;;;22.40;88.20;;;22.90;55.39;98290.38;5018123;27;122848;-72
2022/08/19 05:59:24;;;;;;;21.17;15.87;;;22.40;88.10;;;22.92;55.41;98290.78;5034999;27;123825;-72
2022/08/19 06:01:54;;;;;;;20.80;16.57;;;22.40;88.00;;;22.89;55.21;98287.97;5031934;27;120184;-72
2022/08/19 06:04:22;;;;;;;21.00;15.97;;;22.40;87.90;;;22.86;55.22;98283.97;5014312;27;119634;-72
2022/08/19 06:06:51;;;;;;;20.67;16.97;;;22.40;88.60;;;22.87;55.13;98296.84;5027880;27;123519;-71
2022/08/19 06:09:21;;;;;;;21.53;16.10;;;22.40;87.90;;;22.86;55.44;98283.97;5036874;27;122507;-72
2022/08/19 06:11:59;;;;;;;25.13;16.90;;;22.40;88.00;;;22.85;55.29;98285.16;5034285;27;119268;-72
2022/08/19 06:14:30;;;;;;;18.63;15.20;;;22.40;88.10;;;22.83;55.43;98290.41;5024937;27;119099;-72
2022/08/19 06:16:59;;;;;;;22.70;15.40;;;22.40;88.10;;;22.84;55.35;98286.41;5037290;27;124063;-72
2022/08/19 06:19:28;;;;;;;19.10;15.47;;;22.40;88.10;;;22.83;55.43;98301.66;5027804;27;123881;-72
2022/08/19 06:21:54;;;;;;;22.93;15.53;;;22.40;88.10;;;22.82;55.78;98288.81;5028672;27;119140;-72
2022/08/19 06:24:24;;;;;;;23.17;16.40;;;22.40;88.30;;;22.82;55.40;98288.81;5032331;27;119526;-72
2022/08/19 06:26:54;;;;;;;22.43;16.03;;;22.40;88.40;;;22.84;55.46;98283.56;5025574;27;124194;-72
2022/08/19 06:29:23;;;;;;;21.83;16.40;;;22.40;88.40;;;22.87;55.22;98285.56;5025895;27;123017;-72
2022/08/19 06:31:54;;;;;;;21.17;16.70;;;22.40;88.40;;;22.89;55.40;98283.16;5026755;27;119697;-72
2022/08/19 06:34:20;;;;;;;21.97;16.50;;;22.40;88.40;;;22.90;55.39;98284.75;5036103;27;118862;-72
2022/08/19 06:36:50;;;;;;;23.70;17.37;;;22.40;88.50;;;22.89;55.41;98288.78;5032364;27;125088;-72
2022/08/19 06:39:22;;;;;;;21.23;16.70;;;22.40;88.50;;;22.89;55.28;98291.63;5028501;27;123677;-73
2022/08/19 06:41:53;;;;;;;19.03;15.00;;;22.40;88.40;;;22.89;55.40;98300.06;5028723;27;120056;-72
2022/08/19 06:44:23;;;;;;;21.70;16.83;;;22.40;88.50;;;22.89;55.48;98297.25;5043976;27;119270;-73
2022/08/19 06:46:49;;;;;;;20.80;17.03;;;22.40;88.70;;;22.93;55.74;98300.03;5031634;27;123968;-72
2022/08/19 06:49:17;;;;;;;21.80;15.93;;;22.40;88.70;;;22.92;55.98;98299.25;5036595;27;124253;-72
2022/08/19 06:51:50;;;;;;;22.27;16.20;;;22.50;89.00;;;22.90;55.73;98289.59;5027961;27;120308;-73
2022/08/19 06:54:18;;;;;;;20.23;16.40;;;22.40;89.20;;;22.91;56.23;98297.63;5034398;27;120381;-73
2022/08/19 06:56:45;;;;;;;21.37;16.20;;;22.40;89.30;;;22.90;56.17;98293.22;5030486;27;124403;-73
2022/08/19 06:59:17;;;;;;;19.43;15.80;;;22.40;89.40;;;22.88;56.48;98289.19;5033357;27;123712;-72
2022/08/19 07:01:51;;;;;;;21.77;16.53;;;22.40;89.90;;;22.85;56.57;98293.63;5031154;27;119768;-72
2022/08/19 07:04:33;;;;;;;19.40;15.97;;;22.40;90.00;;;22.81;56.85;98298.47;5032512;27;119135;-73
2022/08/19 07:07:09;;;;;;;20.80;15.30;;;22.30;90.00;;;22.80;56.73;98302.50;5030836;27;123558;-73
2022/08/19 07:09:42;;;;;;;24.43;17.10;;;22.40;90.10;;;22.76;56.68;98301.72;5026709;27;124312;-73
2022/08/19 07:12:15;;;;;;;22.90;16.60;;;22.30;90.10;;;22.75;57.30;98305.72;5034161;27;118854;-73
2022/08/19 07:14:42;;;;;;;24.57;17.80;;;22.30;90.20;;;22.76;57.24;98306.53;5035156;27;119613;-73
2022/08/19 07:17:11;;;;;;;23.00;18.13;;;22.30;90.20;;;22.75;57.24;98314.16;5023666;27;124985;-73
2022/08/19 07:19:39;;;;;;;23.03;16.37;;;22.30;90.30;;;22.74;57.34;98311.78;5041328;27;123785;-73
2022/08/19 07:22:08;;;;;;;19.60;14.67;;;22.30;90.40;;;22.74;57.38;98321.03;5025434;27;119423;-73
2022/08/19 07:24:36;;;;;;;22.70;16.13;;;22.30;90.40;;;22.74;57.34;98320.22;5034887;27;119656;-73
2022/08/19 07:27:05;;;;;;;21.00;15.30;;;22.30;90.40;;;22.74;57.21;98314.59;5028285;27;124593;-73
2022/08/19 07:29:34;;;;;;;20.90;15.13;;;22.30;90.40;;;22.75;57.27;98314.16;5043883;27;123618;-73
2022/08/19 07:32:03;;;;;;;21.70;16.47;;;22.30;90.40;;;22.79;57.15;98308.53;5026478;27;118362;-71
2022/08/19 07:34:33;;;;;;;21.07;15.80;;;22.30;90.40;;;22.76;57.13;98310.16;5025413;27;118163;-73
2022/08/19 07:36:59;;;;;;;18.07;13.70;;;22.30;90.40;;;22.77;57.03;98317.38;5023956;27;124044;-72
2022/08/19 07:39:31;;;;;;;22.83;15.20;;;22.30;90.30;;;22.79;56.86;98317.78;5024314;27;123221;-72
2022/08/19 07:42:01;;;;;;;18.70;15.17;;;22.40;90.40;;;22.79;56.77;98311.38;5023542;27;120767;-72
2022/08/19 07:44:28;;;;;;;19.33;14.13;;;22.40;90.30;;;22.82;56.51;98319.00;5031459;27;120031;-71
2022/08/19 07:46:57;;;;;;;19.33;15.20;;;22.40;90.20;;;22.81;56.37;98323.84;5027683;27;124002;-73
2022/08/19 07:49:24;;;;;;;22.17;16.83;;;22.40;90.20;;;22.81;56.61;98318.19;5012823;27;123022;-72
2022/08/19 07:52:03;;;;;;;19.10;14.20;;;22.40;90.20;;;22.80;56.63;98316.56;5024950;27;119182;-73
2022/08/19 07:54:34;;;;;;;21.63;14.73;;;22.30;90.10;;;22.81;56.39;98325.81;5030760;27;118702;-73
2022/08/19 07:57:00;;;;;;;19.87;15.40;;;22.40;90.20;;;22.82;56.50;98319.78;5026446;27;124529;-73
2022/08/19 07:59:28;;;;;;;20.80;15.07;;;22.30;90.10;;;22.82;56.29;98324.63;5032296;27;123705;-73
2022/08/19 08:01:56;;;;;;;18.40;12.80;;;22.30;90.10;;;22.82;56.58;98322.63;5026718;27;118641;-70
2022/08/19 08:09:54;;;;;;;18.17;13.77;;;22.30;90.10;;;22.82;56.21;98325.44;5032197;27;125124;-71
2022/08/19 08:12:28;;;;;;;20.30;14.00;;;22.30;90.10;;;22.84;56.17;98325.03;5024673;27;119250;-71
2022/08/19 08:15:01;;;;;;;16.60;12.80;;;22.30;90.10;;;22.85;56.21;98321.78;5029056;27;119215;-71
2022/08/19 08:17:29;;;;;;;16.60;14.23;;;22.40;90.10;;;22.90;56.14;98335.47;5032802;27;123988;-72
2022/08/19 08:19:57;;;;;;;20.27;12.67;;;22.40;90.10;;;22.93;56.10;98334.66;5037908;27;123065;-71
2022/08/19 08:25:16;;;;;;;20.47;14.43;;;22.50;90.00;;;22.97;55.71;98339.50;5043255;27;120134;-73
2022/08/19 08:27:45;;;;;;;19.07;13.93;;;22.50;90.00;;;22.94;55.97;98335.44;5037688;27;124793;-73
2022/08/19 08:30:17;;;;;;;21.87;16.00;;;22.50;90.00;;;22.93;56.26;98336.66;5034831;27;123665;-73
2022/08/19 08:32:44;;;;;;;22.83;15.33;;;22.40;90.00;;;22.92;56.14;98335.06;5041559;27;120276;-72
2022/08/19 08:35:16;;;;;;;21.60;16.10;;;22.40;90.10;;;22.88;55.95;98337.88;5040294;27;120146;-73
2022/08/19 08:37:44;;;;;;;17.43;14.00;;;22.40;90.10;;;22.87;56.22;98341.91;5038549;27;124516;-73
2022/08/19 08:40:21;;;;;;;18.93;14.83;;;22.40;90.10;;;22.89;56.08;98342.31;5045010;27;124369;-73
2022/08/19 08:43:27;;;;;;;18.30;13.50;;;22.40;90.10;;;22.89;56.37;98338.69;5043984;27;119228;-72
2022/08/19 08:46:00;;;;;;;20.80;13.87;;;21.30;89.20;;;22.89;56.41;98345.13;5028849;27;118201;-78
2022/08/19 08:48:54;;;;;;;19.47;15.23;;;22.40;90.20;;;22.88;56.45;98334.25;5034927;27;124268;-72
2022/08/19 08:51:34;;;;;;;17.63;15.17;;;22.40;90.30;;;22.88;56.61;98337.09;5042650;27;122154;-73
2022/08/19 08:54:06;;;;;;;18.97;14.60;;;22.40;90.50;;;22.88;57.09;98331.44;5033631;27;119296;-72
2022/08/19 08:56:33;;;;;;;24.33;15.67;;;22.40;90.70;;;22.89;56.92;98333.88;5026856;27;118719;-72
2022/08/19 08:59:22;;;;;;;15.53;13.17;;;22.40;90.60;;;22.92;56.97;98338.69;5023952;27;124487;-75
2022/08/19 09:01:49;;;;;;;18.90;14.07;;;22.40;90.70;;;22.96;57.21;98343.50;5033571;27;123648;-72
2022/08/19 09:04:16;;;;;;;19.33;14.73;;;22.50;90.70;;;22.99;57.27;98337.09;5035995;27;119745;-72
2022/08/19 09:07:16;;;;;;;15.87;13.20;;;22.50;90.80;;;22.99;57.01;98337.88;5046368;27;119058;-72
2022/08/19 09:09:48;;;;;;;16.27;13.20;;;22.50;90.80;;;23.02;57.50;98344.72;5057783;27;124160;-73
2022/08/19 09:12:57;;;;;;;20.73;13.80;;;22.50;90.80;;;23.01;57.22;98337.47;5042994;27;123145;-75
2022/08/19 09:15:35;;;;;;;18.53;13.13;;;22.60;90.90;;;23.04;57.34;98339.47;5039573;27;120280;-74
2022/08/19 09:18:03;;;;;;;13.80;11.33;;;22.60;90.90;;;23.07;57.29;98349.94;5031884;27;117722;-73
2022/08/19 09:20:31;;;;;;;15.70;12.67;;;22.60;90.90;;;23.10;57.27;98344.28;5037850;27;124095;-74
2022/08/19 09:22:58;;;;;;;17.27;13.03;;;22.60;91.00;;;23.15;57.32;98343.84;5041708;27;124230;-74
2022/08/19 09:25:25;;;;;;;17.40;12.70;;;22.60;90.90;;;23.20;57.10;98347.47;5045131;27;120329;-71
2022/08/19 09:27:54;;;;;;;18.00;13.47;;;22.70;90.90;;;23.22;57.21;98345.88;5031097;27;119852;-71
2022/08/19 09:30:27;;;;;;;15.50;12.53;;;22.70;91.00;;;23.25;57.21;98350.69;5048200;27;124343;-72
2022/08/19 09:32:55;;;;;;;15.40;12.73;;;22.80;91.00;;;23.28;56.96;98344.22;5035200;27;123512;-77
2022/08/19 09:35:24;;;;;;;19.33;13.40;;;22.80;90.90;;;23.30;56.79;98344.63;5045183;27;119346;-74
2022/08/19 09:37:52;;;;;;;19.93;12.60;;;22.80;90.90;;;23.32;56.86;98345.03;5025731;27;117246;-73
2022/08/19 09:40:19;;;;;;;16.80;11.10;;;22.80;90.90;;;23.35;56.85;98349.84;5045679;27;124674;-75
2022/08/19 09:42:47;;;;;;;18.00;11.90;;;22.80;90.80;;;23.36;56.76;98342.97;5043924;27;124251;-72
2022/08/19 09:45:21;;;;;;;13.37;11.30;;;22.90;90.90;;;23.34;56.82;98351.03;5043806;27;119828;-72
2022/08/19 09:47:50;;;;;;;12.17;10.87;;;22.90;90.80;;;23.36;56.77;98340.16;5043023;27;120502;-72
2022/08/19 09:50:18;;;;;;;14.50;11.43;;;22.90;90.80;;;23.41;56.93;98343.78;5037624;27;124080;-72
2022/08/19 09:52:45;;;;;;;12.70;9.70;;;22.90;90.90;;;23.43;56.69;98336.50;5044876;27;123657;-71
2022/08/19 09:55:13;;;;;;;17.10;10.93;;;22.90;91.10;;;23.50;56.62;98352.59;5041901;27;119990;-71
2022/08/19 09:57:39;;;;;;;16.50;11.97;;;23.00;90.80;;;23.55;56.29;98352.16;5045518;27;119234;-70
2022/08/19 10:00:09;;;;;;;17.73;10.70;;;23.00;90.80;;;23.60;56.39;98352.53;5046428;27;123240;-71
2022/08/19 10:02:36;;;;;;;15.37;11.13;;;23.10;90.70;;;23.65;56.12;98348.47;5036923;27;124250;-71
2022/08/19 10:07:47;;;;;;;17.03;9.90;;;23.10;90.80;;;23.72;55.92;98342.84;5045932;27;119805;-72
2022/08/19 10:10:14;;;;;;;13.93;11.17;;;23.20;90.50;;;23.73;55.72;98352.91;5040890;27;124610;-70
2022/08/19 10:12:40;;;;;;;14.17;11.27;;;23.20;90.40;;;23.76;55.47;98348.44;5043905;27;123819;-70
2022/08/19 10:15:08;;;;;;;15.10;10.47;;;23.20;90.30;;;23.76;55.72;98346.44;5039345;27;120514;-71
2022/08/19 10:17:35;;;;;;;12.53;10.10;;;23.30;90.30;;;23.75;55.54;98338.38;5038799;27;120329;-71
2022/08/19 10:20:04;;;;;;;12.23;9.33;;;23.30;90.20;;;23.77;55.40;98347.22;5040016;27;124061;-69
2022/08/19 10:22:30;;;;;;;13.93;10.13;;;23.30;90.20;;;23.77;55.52;98338.75;5039927;27;124425;-69
2022/08/19 10:24:57;;;;;;;12.10;10.47;;;23.30;90.20;;;23.77;55.39;98341.59;5045029;27;119644;-70
2022/08/19 10:27:23;;;;;;;12.27;10.23;;;23.30;90.10;;;23.78;55.25;98338.38;5042591;27;119368;-73
2022/08/19 10:29:50;;;;;;;11.83;8.87;;;23.30;90.10;;;23.81;55.34;98340.34;5038074;27;123947;-71
2022/08/19 10:32:16;;;;;;;14.17;10.03;;;23.40;90.10;;;23.86;55.33;98341.94;5042423;27;123955;-72